Time;durP1;ratioP1;P1;durP2;ratioP2;P2;SDS_P1;SDS_P2;PMS_P1;PMS_P2;Temp;Humidity;BMP_temperature;BMP_pressure;BME280_temperature;BME280_humidity;BME280_pressure;Samples;Min_cycle;Max_cycle;Signal;HPM_P1;HPM_P2
2022/05/27 00:00:20;;;;;;;20.50;9.40;;;13.50;99.90;;;;;;4973717;28;20184;-56
2022/05/27 00:02:48;;;;;;;18.90;9.33;;;13.50;99.90;;;;;;4973593;28;20487;-55
2022/05/27 00:05:17;;;;;;;16.13;8.97;;;13.50;99.90;;;;;;4973684;28;20540;-55
2022/05/27 00:07:42;;;;;;;22.13;8.57;;;13.40;99.90;;;;;;4976373;28;20970;-55
2022/05/27 00:10:09;;;;;;;18.10;8.37;;;13.40;99.90;;;;;;4977603;28;20416;-55
2022/05/27 00:12:35;;;;;;;18.60;9.90;;;13.40;99.90;;;;;;4975868;28;20519;-55
2022/05/27 00:15:01;;;;;;;17.67;8.43;;;13.40;99.90;;;;;;4975951;28;20424;-55
2022/05/27 00:17:26;;;;;;;16.20;8.80;;;13.30;99.90;;;;;;4975814;28;20184;-55
2022/05/27 00:19:52;;;;;;;15.77;8.63;;;13.30;99.90;;;;;;4975884;28;20177;-56
2022/05/27 00:22:17;;;;;;;23.50;8.90;;;13.30;99.90;;;;;;4975739;28;20205;-54
2022/05/27 00:24:43;;;;;;;18.60;7.50;;;13.30;99.90;;;;;;4975593;28;20172;-55
2022/05/27 00:27:08;;;;;;;18.30;8.50;;;13.30;99.90;;;;;;4975822;28;20172;-55
2022/05/27 00:29:35;;;;;;;23.13;7.70;;;13.30;99.90;;;;;;4975685;28;20236;-55
2022/05/27 00:32:02;;;;;;;18.20;8.27;;;13.30;99.90;;;;;;4975501;28;20547;-56
2022/05/27 00:34:27;;;;;;;14.83;8.20;;;13.40;99.90;;;;;;4975654;28;20471;-55
2022/05/27 00:36:53;;;;;;;20.70;7.20;;;13.40;99.90;;;;;;4975551;28;21063;-55
2022/05/27 00:39:18;;;;;;;19.20;8.07;;;13.40;99.90;;;;;;4975601;28;20192;-56
2022/05/27 00:41:44;;;;;;;19.40;7.97;;;13.40;99.90;;;;;;4975436;28;20219;-54
2022/05/27 00:44:10;;;;;;;17.87;8.93;;;13.40;99.90;;;;;;4975404;28;20188;-55
2022/05/27 00:46:38;;;;;;;16.57;7.80;;;13.50;99.90;;;;;;4975398;28;20185;-55
2022/05/27 00:49:11;;;;;;;27.73;7.87;;;13.50;99.90;;;;;;4975701;28;20868;-55
2022/05/27 00:51:48;;;;;;;14.63;7.63;;;13.50;99.90;;;;;;4975314;28;20420;-56
2022/05/27 00:54:17;;;;;;;17.97;6.57;;;13.50;99.90;;;;;;4975320;28;20462;-55
2022/05/27 00:56:47;;;;;;;17.63;6.50;;;13.50;99.90;;;;;;4975263;28;20412;-55
2022/05/27 00:59:20;;;;;;;11.27;5.20;;;13.50;99.90;;;;;;4975209;28;20428;-55
2022/05/27 01:01:45;;;;;;;14.50;5.67;;;13.40;99.90;;;;;;4975149;28;20515;-56
2022/05/27 01:04:11;;;;;;;16.03;5.20;;;13.40;99.90;;;;;;4975302;28;20849;-56
2022/05/27 01:06:37;;;;;;;17.57;5.47;;;13.40;99.90;;;;;;4975546;28;20185;-56
2022/05/27 01:09:04;;;;;;;13.53;4.60;;;13.40;99.90;;;;;;4975032;28;20240;-56
2022/05/27 01:11:55;;;;;;;14.73;4.90;;;13.40;99.90;;;;;;4975299;28;20181;-55
2022/05/27 01:14:51;;;;;;;13.03;4.70;;;13.40;99.90;;;;;;4974931;28;20937;-55
2022/05/27 01:17:36;;;;;;;19.27;4.63;;;13.50;99.90;;;;;;4974795;28;20460;-55
2022/05/27 01:20:20;;;;;;;16.03;5.03;;;13.40;99.90;;;;;;4974804;28;20467;-56
2022/05/27 01:22:52;;;;;;;18.63;4.37;;;13.40;99.90;;;;;;4974735;28;20456;-57
2022/05/27 01:25:38;;;;;;;13.60;4.73;;;13.40;99.90;;;;;;4974882;28;20875;-56
2022/05/27 01:28:09;;;;;;;21.13;4.23;;;13.30;99.90;;;;;;4974803;28;20456;-55
2022/05/27 01:30:39;;;;;;;14.70;4.43;;;13.30;99.90;;;;;;4974648;28;20420;-56
2022/05/27 01:33:36;;;;;;;18.33;4.00;;;13.20;99.90;;;;;;4974697;28;20544;-55
2022/05/27 01:36:27;;;;;;;11.70;3.50;;;13.20;99.90;;;;;;4974672;28;20438;-56
2022/05/27 01:39:04;;;;;;;13.53;3.93;;;13.10;99.90;;;;;;4974438;28;20460;-56
2022/05/27 01:41:51;;;;;;;18.03;3.60;;;13.10;99.90;;;;;;4974415;28;20499;-55
2022/05/27 01:44:31;;;;;;;22.00;4.57;;;13.00;99.90;;;;;;4974397;28;20433;-57
2022/05/27 01:46:57;;;;;;;27.57;4.20;;;13.00;1.00;;;;;;4974354;28;20404;-56
2022/05/27 01:49:46;;;;;;;13.77;3.23;;;12.90;1.00;;;;;;4974256;28;20495;-55
2022/05/27 01:52:52;;;;;;;19.10;3.40;;;12.90;78.00;;;;;;4974027;28;20409;-55
2022/05/27 01:55:28;;;;;;;12.63;3.77;;;12.80;1.00;;;;;;4971720;28;20910;-56
2022/05/27 01:58:16;;;;;;;17.40;3.93;;;12.80;99.90;;;;;;4971654;28;20906;-55
2022/05/27 02:00:44;;;;;;;14.33;3.47;;;12.70;1.00;;;;;;4973406;28;20472;-54
2022/05/27 02:03:41;;;;;;;23.10;3.90;;;12.80;1.00;;;;;;4974042;28;20405;-55
2022/05/27 02:06:13;;;;;;;13.23;4.50;;;12.80;1.00;;;;;;4974032;28;20416;-56
2022/05/27 02:08:46;;;;;;;22.33;3.70;;;12.70;99.90;;;;;;4973702;28;20468;-55
2022/05/27 02:11:15;;;;;;;17.80;3.70;;;12.70;99.90;;;;;;4973845;28;20412;-55
2022/05/27 02:13:51;;;;;;;15.80;3.37;;;12.60;99.90;;;;;;4973742;28;20413;-56
2022/05/27 02:16:47;;;;;;;12.63;3.40;;;12.50;99.90;;;;;;4973974;28;20457;-54
2022/05/27 02:19:20;;;;;;;25.90;3.90;;;12.50;99.90;;;;;;4973299;28;20510;-56
2022/05/27 02:21:59;;;;;;;15.53;3.17;;;12.40;99.10;;;;;;4973587;28;20969;-56
2022/05/27 02:24:39;;;;;;;13.40;3.00;;;12.30;16.00;;;;;;4973532;28;20408;-55
2022/05/27 02:27:14;;;;;;;11.23;3.20;;;12.30;1.00;;;;;;4973670;28;20415;-55
2022/05/27 02:29:43;;;;;;;15.40;3.30;;;12.30;1.00;;;;;;4973079;28;20878;-56
2022/05/27 02:32:17;;;;;;;20.37;3.20;;;12.10;1.00;;;;;;4973720;28;20413;-55
2022/05/27 02:35:09;;;;;;;10.10;2.70;;;12.10;1.00;;;;;;4973417;28;20874;-56
2022/05/27 02:37:44;;;;;;;11.70;2.97;;;12.00;6.00;;;;;;4973305;28;20985;-55
2022/05/27 02:40:15;;;;;;;19.33;3.53;;;11.90;16.00;;;;;;4973273;28;20462;-55
2022/05/27 02:42:47;;;;;;;21.73;3.30;;;11.90;1.90;;;;;;4973110;28;20476;-54
2022/05/27 02:45:23;;;;;;;13.27;3.47;;;11.80;1.00;;;;;;4973289;28;20401;-55
2022/05/27 02:48:18;;;;;;;14.00;2.80;;;11.80;1.00;;;;;;4973211;28;20416;-55
2022/05/27 02:51:05;;;;;;;12.90;2.90;;;11.80;1.00;;;;;;4973079;28;20412;-55
2022/05/27 02:53:39;;;;;;;14.83;3.37;;;11.80;1.00;;;;;;4973189;28;20412;-55
2022/05/27 02:56:16;;;;;;;15.13;3.37;;;11.70;1.00;;;;;;4973040;28;20416;-55
2022/05/27 02:58:42;;;;;;;9.00;2.67;;;11.70;1.00;;;;;;4973033;28;20404;-54
2022/05/27 03:01:08;;;;;;;21.03;3.30;;;11.60;1.00;;;;;;4972867;28;20803;-55
2022/05/27 03:03:34;;;;;;;10.63;2.83;;;11.60;1.00;;;;;;4972824;28;20195;-56
2022/05/27 03:06:14;;;;;;;16.57;2.80;;;11.60;1.00;;;;;;4973007;28;20252;-56
2022/05/27 03:09:08;;;;;;;12.37;2.90;;;11.60;1.00;;;;;;4972621;28;20236;-55
2022/05/27 03:11:38;;;;;;;12.10;2.60;;;11.60;1.00;;;;;;4972678;28;21047;-55
2022/05/27 03:14:17;;;;;;;9.47;2.90;;;11.60;1.00;;;;;;4973011;28;20412;-54
2022/05/27 03:16:59;;;;;;;17.10;3.20;;;11.60;1.00;;;;;;4972638;28;20420;-55
2022/05/27 03:20:04;;;;;;;19.97;3.50;;;11.60;1.00;;;;;;4972616;28;20427;-55
2022/05/27 03:22:38;;;;;;;13.07;3.00;;;11.60;1.00;;;;;;4972653;28;20469;-54
2022/05/27 03:25:07;;;;;;;11.67;3.03;;;11.70;1.00;;;;;;4972479;28;20420;-56
2022/05/27 03:27:39;;;;;;;9.90;2.70;;;11.70;1.00;;;;;;4972330;28;20941;-54
2022/05/27 03:30:23;;;;;;;18.03;3.10;;;11.70;1.00;;;;;;4972358;28;20404;-55
2022/05/27 03:32:52;;;;;;;17.70;3.40;;;11.70;1.00;;;;;;4972454;28;20404;-54
2022/05/27 03:35:40;;;;;;;17.13;2.57;;;11.60;1.00;;;;;;4972378;28;20424;-54
2022/05/27 03:38:38;;;;;;;19.43;4.50;;;11.60;1.00;;;;;;4972324;28;20425;-55
2022/05/27 03:41:08;;;;;;;14.40;3.07;;;11.60;1.00;;;;;;4970474;28;20972;-54
2022/05/27 03:43:36;;;;;;;12.00;3.27;;;11.60;1.00;;;;;;4972173;28;20917;-54
2022/05/27 03:46:02;;;;;;;13.63;3.10;;;11.80;99.90;;;;;;4972217;28;20753;-54
2022/05/27 03:48:31;;;;;;;11.50;2.60;;;11.80;99.90;;;;;;4972245;28;20467;-54
2022/05/27 03:51:01;;;;;;;15.60;3.37;;;11.80;99.90;;;;;;4972238;28;20472;-53
2022/05/27 03:54:03;;;;;;;10.20;2.70;;;11.80;99.90;;;;;;4972237;28;20459;-55
2022/05/27 03:56:12;;;;;;;10.70;2.70;;;11.80;99.90;;;;;;4972050;28;20493;-54
2022/05/27 03:58:37;;;;;;;12.13;2.67;;;11.80;99.90;;;;;;4972174;28;20515;-54
2022/05/27 04:01:03;;;;;;;12.80;2.57;;;11.70;99.90;;;;;;4971981;28;20659;-53
2022/05/27 04:03:29;;;;;;;13.13;3.10;;;11.70;99.90;;;;;;4972164;28;20324;-53
2022/05/27 04:05:54;;;;;;;14.37;2.90;;;11.70;99.90;;;;;;4972088;28;20642;-54
2022/05/27 04:08:20;;;;;;;14.47;2.97;;;11.80;99.90;;;;;;4971933;28;20241;-54
2022/05/27 04:10:45;;;;;;;10.53;2.57;;;11.80;99.90;;;;;;4971974;28;20328;-53
2022/05/27 04:13:11;;;;;;;11.23;2.33;;;11.80;99.90;;;;;;4972155;28;20312;-53
2022/05/27 04:15:36;;;;;;;8.97;2.40;;;11.70;99.90;;;;;;4972061;28;20933;-55
2022/05/27 04:18:02;;;;;;;8.80;2.10;;;11.70;99.90;;;;;;4972034;28;20300;-53
2022/05/27 04:20:27;;;;;;;13.40;2.80;;;11.70;99.90;;;;;;4972131;28;20189;-55
2022/05/27 04:22:56;;;;;;;12.50;2.57;;;11.70;99.90;;;;;;4972055;28;20275;-55
2022/05/27 04:25:23;;;;;;;14.20;2.90;;;11.70;99.90;;;;;;4971891;28;20188;-54
2022/05/27 04:27:48;;;;;;;9.97;2.27;;;11.70;99.90;;;;;;4972007;28;20937;-55
2022/05/27 04:30:15;;;;;;;12.83;2.60;;;11.80;99.90;;;;;;4971733;28;20451;-55
2022/05/27 04:32:41;;;;;;;13.80;2.70;;;11.90;99.90;;;;;;4971957;28;20177;-54
2022/05/27 04:35:09;;;;;;;18.17;2.97;;;11.80;99.90;;;;;;4971904;28;20523;-54
2022/05/27 04:37:35;;;;;;;11.33;2.73;;;11.90;99.90;;;;;;4971763;28;20424;-54
2022/05/27 04:40:02;;;;;;;5.70;1.90;;;12.00;99.90;;;;;;4971658;28;20874;-54
2022/05/27 04:42:28;;;;;;;9.37;2.40;;;12.10;99.90;;;;;;4971704;28;20526;-53
2022/05/27 04:44:54;;;;;;;22.40;2.67;;;12.10;99.90;;;;;;4971645;28;20891;-53
2022/05/27 04:47:20;;;;;;;11.63;2.50;;;12.20;99.90;;;;;;4971884;28;20488;-55
2022/05/27 04:49:51;;;;;;;7.87;2.20;;;12.20;99.90;;;;;;4970372;28;20231;-53
2022/05/27 04:52:18;;;;;;;8.10;2.10;;;12.30;99.90;;;;;;4971939;28;20175;-55
2022/05/27 04:54:44;;;;;;;8.53;2.17;;;12.40;99.90;;;;;;4975216;28;20870;-54
2022/05/27 04:57:16;;;;;;;9.97;2.20;;;12.40;99.90;;;;;;4975138;28;20427;-53
2022/05/27 04:59:42;;;;;;;7.87;2.07;;;12.40;99.90;;;;;;4975120;28;20971;-53
2022/05/27 05:02:07;;;;;;;8.50;2.10;;;12.40;99.90;;;;;;4975210;28;20468;-53
2022/05/27 05:04:33;;;;;;;6.00;1.87;;;12.50;99.90;;;;;;4975123;28;20216;-54
2022/05/27 05:07:04;;;;;;;9.30;2.10;;;12.60;99.90;;;;;;4974988;28;20216;-55
2022/05/27 05:09:30;;;;;;;8.93;2.00;;;12.60;99.90;;;;;;4975051;28;20221;-53
2022/05/27 05:11:56;;;;;;;11.60;2.30;;;12.60;99.90;;;;;;4974908;28;20440;-54
2022/05/27 05:14:22;;;;;;;10.10;2.10;;;12.70;99.90;;;;;;4974907;28;20243;-54
2022/05/27 05:16:47;;;;;;;13.90;2.47;;;12.80;99.90;;;;;;4974793;28;20751;-54
2022/05/27 05:19:13;;;;;;;9.63;2.20;;;12.90;99.90;;;;;;4974870;28;20181;-53
2022/05/27 05:21:38;;;;;;;5.43;1.83;;;13.00;99.90;;;;;;4974378;28;20255;-55
2022/05/27 05:24:04;;;;;;;7.10;2.13;;;13.10;99.90;;;;;;4974676;28;20188;-54
2022/05/27 05:26:29;;;;;;;8.43;2.07;;;13.20;99.90;;;;;;4974784;28;20698;-55
2022/05/27 05:28:55;;;;;;;7.20;1.90;;;13.20;99.90;;;;;;4974552;28;20806;-54
2022/05/27 05:31:21;;;;;;;14.40;2.87;;;13.30;99.90;;;;;;4974786;28;20189;-54
2022/05/27 05:33:46;;;;;;;16.17;2.40;;;13.30;99.90;;;;;;4974527;28;20189;-53
2022/05/27 05:36:12;;;;;;;11.27;2.30;;;13.60;99.90;;;;;;4974378;28;20181;-52
2022/05/27 05:38:38;;;;;;;11.47;2.03;;;13.80;99.90;;;;;;4974752;28;20189;-52
2022/05/27 05:41:05;;;;;;;12.90;2.70;;;13.70;99.90;;;;;;4974358;28;20647;-54
2022/05/27 05:43:30;;;;;;;12.70;2.43;;;13.70;99.90;;;;;;4974330;28;20428;-53
2022/05/27 05:45:56;;;;;;;11.40;2.43;;;13.70;99.90;;;;;;4974521;28;20412;-54
2022/05/27 05:48:21;;;;;;;12.20;2.47;;;13.90;99.90;;;;;;4974472;28;20864;-52
2022/05/27 05:50:47;;;;;;;16.83;2.50;;;14.10;99.90;;;;;;4974290;28;20199;-53
2022/05/27 05:53:13;;;;;;;13.27;2.20;;;14.10;99.90;;;;;;4974138;28;20169;-53
2022/05/27 05:55:38;;;;;;;8.83;1.87;;;14.20;99.90;;;;;;4974077;28;20185;-52
2022/05/27 05:58:04;;;;;;;10.40;2.60;;;14.40;99.90;;;;;;4974009;28;20425;-53
2022/05/27 06:00:30;;;;;;;10.53;2.00;;;14.60;99.90;;;;;;4974347;28;20236;-52
2022/05/27 06:02:56;;;;;;;12.73;2.20;;;14.60;99.90;;;;;;4974130;28;20562;-54
2022/05/27 06:05:23;;;;;;;12.13;2.50;;;14.40;99.90;;;;;;4973338;28;20755;-53
2022/05/27 06:07:49;;;;;;;20.60;2.70;;;14.40;99.90;;;;;;4974013;28;20221;-54
2022/05/27 06:10:16;;;;;;;10.17;2.53;;;14.50;99.90;;;;;;4973956;28;20416;-52
2022/05/27 06:12:42;;;;;;;12.00;2.30;;;14.60;99.90;;;;;;4973908;28;20614;-53
2022/05/27 06:15:12;;;;;;;14.50;2.50;;;14.90;99.90;;;;;;4973832;28;20421;-53
2022/05/27 06:17:37;;;;;;;8.80;2.37;;;15.00;99.90;;;;;;4973845;28;20423;-54
2022/05/27 06:20:05;;;;;;;13.63;2.27;;;15.00;99.90;;;;;;4973580;28;20503;-54
2022/05/27 06:22:32;;;;;;;11.03;3.00;;;15.20;99.90;;;;;;4973817;28;20220;-54
2022/05/27 06:24:58;;;;;;;13.50;2.80;;;15.10;99.90;;;;;;4973751;28;20432;-52
2022/05/27 06:27:24;;;;;;;8.43;2.00;;;15.20;99.90;;;;;;4973723;28;20420;-52
2022/05/27 06:35:18;;;;;;;7.90;2.90;;;15.10;99.90;;;;;;4973478;28;20447;-52
2022/05/27 06:37:43;;;;;;;10.57;2.37;;;15.30;99.90;;;;;;4973554;28;20429;-54
2022/05/27 06:40:10;;;;;;;14.00;2.70;;;15.20;99.90;;;;;;4973449;28;20224;-53
2022/05/27 06:42:37;;;;;;;13.57;2.20;;;15.20;99.90;;;;;;4973259;28;20213;-53
2022/05/27 06:45:03;;;;;;;10.67;2.37;;;15.00;99.90;;;;;;4973155;28;20424;-53
2022/05/27 06:47:29;;;;;;;9.03;2.23;;;15.00;99.90;;;;;;4973782;28;20412;-54
2022/05/27 06:49:54;;;;;;;9.43;2.10;;;15.10;99.90;;;;;;4973036;28;20463;-54
2022/05/27 06:52:20;;;;;;;10.13;2.57;;;14.90;99.90;;;;;;4973079;28;20580;-54
2022/05/27 06:54:46;;;;;;;15.03;2.37;;;14.70;99.90;;;;;;4973044;28;20267;-55
2022/05/27 06:57:12;;;;;;;10.60;2.00;;;14.90;99.90;;;;;;4973027;28;20441;-54
2022/05/27 06:59:38;;;;;;;11.70;3.30;;;15.20;99.90;;;;;;4972846;28;20200;-53
2022/05/27 07:02:05;;;;;;;8.07;2.30;;;15.20;99.90;;;;;;4973010;28;20980;-53
2022/05/27 07:04:31;;;;;;;15.00;2.57;;;15.00;99.90;;;;;;4972821;28;20432;-54
2022/05/27 07:06:57;;;;;;;11.07;2.40;;;15.20;99.90;;;;;;4972766;28;20463;-54
2022/05/27 07:09:24;;;;;;;9.60;2.50;;;15.20;99.90;;;;;;4972826;28;20476;-55
2022/05/27 07:11:55;;;;;;;15.67;3.00;;;15.10;99.90;;;;;;4972744;28;20192;-53
2022/05/27 07:14:20;;;;;;;11.40;2.67;;;15.30;99.90;;;;;;4972847;28;20523;-53
2022/05/27 07:16:47;;;;;;;15.10;2.83;;;15.50;99.90;;;;;;4972581;28;20451;-57
2022/05/27 07:19:13;;;;;;;18.83;3.63;;;15.90;99.90;;;;;;4972641;28;20197;-53
2022/05/27 07:21:43;;;;;;;16.40;4.30;;;15.90;99.90;;;;;;4972569;28;20535;-53
2022/05/27 07:24:11;;;;;;;8.63;1.97;;;15.90;99.90;;;;;;4972773;28;20401;-54
2022/05/27 07:26:38;;;;;;;13.30;2.63;;;16.00;99.90;;;;;;4972471;28;20424;-53
2022/05/27 07:29:05;;;;;;;10.50;2.80;;;15.60;99.90;;;;;;4972559;28;20416;-53
2022/05/27 07:31:30;;;;;;;11.20;2.67;;;15.10;99.90;;;;;;4972591;28;20450;-52
2022/05/27 07:33:57;;;;;;;7.63;2.27;;;14.90;99.90;;;;;;4972196;28;20424;-52
2022/05/27 07:36:22;;;;;;;8.57;2.60;;;15.50;99.90;;;;;;4972604;28;20189;-54
2022/05/27 07:38:51;;;;;;;8.73;2.40;;;16.00;99.90;;;;;;4972616;28;20412;-54
2022/05/27 07:41:18;;;;;;;13.13;2.20;;;16.50;99.90;;;;;;4972513;28;20304;-54
2022/05/27 07:43:44;;;;;;;16.70;2.90;;;16.80;99.90;;;;;;4972245;28;20424;-52
2022/05/27 07:46:11;;;;;;;28.33;2.33;;;17.40;99.90;;;;;;4972438;28;20455;-54
2022/05/27 07:48:36;;;;;;;7.40;2.60;;;17.90;99.90;;;;;;4972246;28;20423;-52
2022/05/27 07:51:02;;;;;;;6.33;2.53;;;18.20;99.90;;;;;;4972382;28;20417;-52
2022/05/27 07:53:28;;;;;;;6.80;2.10;;;18.00;99.90;;;;;;4972414;28;20189;-54
2022/05/27 07:55:53;;;;;;;13.27;2.33;;;16.90;99.90;;;;;;4972357;28;20216;-54
2022/05/27 07:58:19;;;;;;;13.93;2.93;;;16.00;99.90;;;;;;4972252;28;20188;-52
2022/05/27 08:00:44;;;;;;;8.93;2.07;;;15.90;99.90;;;;;;4972064;28;20188;-54
2022/05/27 08:03:11;;;;;;;10.37;2.60;;;16.30;99.90;;;;;;4972165;28;20559;-54
2022/05/27 08:05:39;;;;;;;9.77;2.43;;;16.70;99.90;;;;;;4972227;28;20181;-59
2022/05/27 08:08:04;;;;;;;10.80;2.23;;;16.80;99.90;;;;;;4972180;28;20468;-53
2022/05/27 08:10:34;;;;;;;8.83;2.87;;;16.90;99.90;;;;;;4972089;28;20489;-53
2022/05/27 08:13:00;;;;;;;7.20;2.63;;;17.30;99.90;;;;;;4972089;28;20189;-53
2022/05/27 08:15:26;;;;;;;6.60;2.23;;;17.70;99.90;;;;;;4970707;28;20439;-54
2022/05/27 08:17:52;;;;;;;12.40;2.13;;;17.40;99.90;;;;;;4972572;28;20413;-53
2022/05/27 08:20:21;;;;;;;9.03;2.57;;;17.50;99.90;;;;;;4972159;28;20407;-54
2022/05/27 08:22:47;;;;;;;6.77;2.47;;;18.10;99.90;;;;;;4971947;28;20217;-54
2022/05/27 08:25:13;;;;;;;8.87;2.37;;;18.60;99.90;;;;;;4972040;28;20413;-53
2022/05/27 08:27:39;;;;;;;11.57;2.50;;;18.60;99.90;;;;;;4972959;28;20424;-55
2022/05/27 08:30:07;;;;;;;10.13;2.30;;;17.80;99.90;;;;;;4975877;28;20522;-55
2022/05/27 08:32:32;;;;;;;7.40;2.30;;;17.30;99.90;;;;;;4975883;28;20420;-54
2022/05/27 08:38:01;;;;;;;12.97;2.67;;;17.50;99.90;;;;;;4975631;28;20251;-54
2022/05/27 08:40:58;;;;;;;7.70;2.37;;;17.70;99.90;;;;;;4975819;28;20422;-54
2022/05/27 08:43:37;;;;;;;7.93;1.97;;;18.10;99.90;;;;;;4975711;28;20807;-53
2022/05/27 08:46:27;;;;;;;6.43;2.23;;;18.10;99.90;;;;;;4975467;28;20393;-54
2022/05/27 08:49:09;;;;;;;10.90;2.10;;;18.30;99.90;;;;;;4975455;28;20412;-54
2022/05/27 08:51:40;;;;;;;10.87;2.20;;;17.20;99.90;;;;;;4975253;28;20435;-52
2022/05/27 08:54:16;;;;;;;6.70;2.20;;;17.30;99.90;;;;;;4975287;28;20516;-54
2022/05/27 08:59:45;;;;;;;7.37;2.23;;;17.00;99.90;;;;;;4975150;28;20424;-53
2022/05/27 09:02:33;;;;;;;15.03;2.90;;;16.60;99.90;;;;;;4975244;28;20566;-53
2022/05/27 09:05:21;;;;;;;11.67;2.77;;;17.00;99.90;;;;;;4975149;28;20463;-52
2022/05/27 09:07:48;;;;;;;7.50;2.20;;;17.70;99.90;;;;;;4974912;28;20476;-53
2022/05/27 09:10:22;;;;;;;11.50;2.53;;;17.30;99.90;;;;;;4974897;28;20407;-54
2022/05/27 09:13:34;;;;;;;8.33;2.23;;;17.10;99.90;;;;;;4975194;28;20434;-53
2022/05/27 09:16:29;;;;;;;6.90;1.73;;;17.60;99.90;;;;;;4972489;28;20444;-52
2022/05/27 09:19:06;;;;;;;15.20;2.90;;;17.60;99.90;;;;;;4975021;28;20456;-52
2022/05/27 09:21:57;;;;;;;9.40;2.53;;;17.30;99.90;;;;;;4975100;28;20565;-52
2022/05/27 09:24:38;;;;;;;8.70;2.50;;;17.30;99.90;;;;;;4974845;28;20415;-54
2022/05/27 09:27:08;;;;;;;8.40;2.30;;;17.70;99.90;;;;;;4974775;28;20409;-53
2022/05/27 09:29:39;;;;;;;10.33;2.30;;;18.30;99.90;;;;;;4973656;28;20440;-53
2022/05/27 09:32:32;;;;;;;5.87;1.90;;;18.30;99.90;;;;;;4974690;28;20405;-52
2022/05/27 09:35:05;;;;;;;12.73;2.70;;;17.70;99.90;;;;;;4974738;28;20954;-52
2022/05/27 09:37:36;;;;;;;11.30;2.80;;;17.70;99.90;;;;;;4974685;28;20511;-54
2022/05/27 09:40:10;;;;;;;13.03;3.20;;;17.10;99.90;;;;;;4973263;28;20907;-53
2022/05/27 09:43:04;;;;;;;19.20;2.67;;;17.40;99.90;;;;;;4974581;28;21025;-54
2022/05/27 09:45:30;;;;;;;12.63;2.47;;;17.90;99.90;;;;;;4974080;28;20817;-53
2022/05/27 09:48:00;;;;;;;11.47;3.00;;;18.00;99.90;;;;;;4974558;28;20401;-52
2022/05/27 09:50:37;;;;;;;7.63;2.70;;;17.40;99.90;;;;;;4974574;28;20616;-53
2022/05/27 09:53:04;;;;;;;13.87;2.87;;;17.20;99.90;;;;;;4974498;28;20455;-53
2022/05/27 09:55:43;;;;;;;21.47;2.83;;;17.80;99.90;;;;;;4974491;28;20871;-53
2022/05/27 09:58:08;;;;;;;13.20;3.00;;;18.20;99.90;;;;;;4974051;28;20416;-54
2022/05/27 10:00:48;;;;;;;20.33;3.10;;;18.90;99.90;;;;;;4974198;28;20419;-52
2022/05/27 10:03:39;;;;;;;15.60;3.43;;;19.40;99.90;;;;;;4974187;28;20188;-54
2022/05/27 10:06:15;;;;;;;9.27;2.30;;;18.70;99.90;;;;;;4973948;28;20412;-55
2022/05/27 10:08:44;;;;;;;9.00;2.60;;;18.30;99.90;;;;;;4972809;28;20488;-54
2022/05/27 10:11:23;;;;;;;13.67;2.50;;;18.90;99.90;;;;;;4974217;28;20801;-53
2022/05/27 10:14:10;;;;;;;5.57;2.27;;;18.90;99.90;;;;;;4972618;28;20420;-53
2022/05/27 10:16:41;;;;;;;8.30;1.90;;;17.70;99.90;;;;;;4974250;28;20436;-54
2022/05/27 10:19:06;;;;;;;11.10;2.23;;;17.10;99.90;;;;;;4973735;28;20519;-54
2022/05/27 10:21:33;;;;;;;9.23;2.03;;;16.50;99.90;;;;;;4973635;28;20539;-54
2022/05/27 10:24:14;;;;;;;7.80;1.73;;;17.00;99.90;;;;;;4974064;28;20256;-53
2022/05/27 10:26:40;;;;;;;9.53;2.23;;;17.90;99.90;;;;;;4973530;28;20465;-49
2022/05/27 10:29:16;;;;;;;7.30;2.00;;;18.30;99.90;;;;;;4973841;28;21212;-50
2022/05/27 10:31:54;;;;;;;9.37;2.50;;;18.60;99.90;;;;;;4973566;28;20168;-49
2022/05/27 10:34:46;;;;;;;11.80;2.50;;;19.20;99.90;;;;;;4973658;28;21357;-49
2022/05/27 10:37:18;;;;;;;9.20;2.30;;;19.40;99.90;;;;;;4973623;28;20427;-50
2022/05/27 10:39:53;;;;;;;11.83;2.30;;;19.70;99.90;;;;;;4973330;28;20416;-49
2022/05/27 10:42:24;;;;;;;14.60;2.30;;;19.10;99.90;;;;;;4973266;28;20548;-49
2022/05/27 10:45:07;;;;;;;13.80;3.20;;;18.10;99.90;;;;;;4972070;28;20437;-50
2022/05/27 10:47:57;;;;;;;9.97;2.70;;;17.40;99.90;;;;;;4973522;28;20415;-49
2022/05/27 10:50:33;;;;;;;11.03;2.80;;;16.30;99.90;;;;;;4972909;28;20416;-55
2022/05/27 10:53:17;;;;;;;9.53;2.97;;;15.00;99.90;;;;;;4973131;28;20471;-54
2022/05/27 10:56:12;;;;;;;12.40;3.10;;;13.90;99.90;;;;;;4973168;28;20417;-55
2022/05/27 11:02:20;;;;;;;11.57;2.47;;;13.30;99.90;;;;;;4971871;28;20523;-54
2022/05/27 11:05:19;;;;;;;19.43;2.63;;;14.50;99.90;;;;;;4972875;28;20880;-54
2022/05/27 11:08:12;;;;;;;13.90;2.90;;;16.20;99.90;;;;;;4972873;28;20985;-54
2022/05/27 11:11:02;;;;;;;12.90;3.10;;;16.90;99.90;;;;;;4972711;28;20423;-54
2022/05/27 11:17:04;;;;;;;13.70;3.10;;;18.10;99.90;;;;;;4972524;28;20416;-54
2022/05/27 11:19:48;;;;;;;14.53;3.23;;;17.90;99.90;;;;;;4974348;28;20400;-54
2022/05/27 11:22:39;;;;;;;14.27;3.20;;;16.90;99.90;;;;;;4974181;28;20794;-54
2022/05/27 11:26:05;;;;;;;9.60;2.73;;;16.00;99.90;;;;;;4974120;28;20456;-54
2022/05/27 11:29:05;;;;;;;18.03;2.67;;;15.30;99.90;;;;;;4971676;28;20564;-55
2022/05/27 11:31:54;;;;;;;13.83;2.60;;;14.40;99.90;;;;;;4973900;28;20440;-54
2022/05/27 11:35:02;;;;;;;11.33;2.63;;;14.20;99.90;;;;;;4974157;28;20534;-54
2022/05/27 11:38:13;;;;;;;11.03;2.67;;;15.20;99.90;;;;;;4974154;28;20750;-55
2022/05/27 11:40:43;;;;;;;10.40;2.90;;;16.50;99.90;;;;;;4974017;28;20772;-55
2022/05/27 11:43:39;;;;;;;10.10;2.77;;;17.50;99.90;;;;;;4973815;28;20531;-54
2022/05/27 11:46:28;;;;;;;16.83;3.13;;;18.30;99.90;;;;;;4973958;28;21104;-54
2022/05/27 11:49:15;;;;;;;15.43;2.67;;;17.70;99.90;;;;;;4973985;28;20413;-55
2022/05/27 11:52:19;;;;;;;17.00;4.40;;;16.50;99.90;;;;;;4973869;28;20771;-55
2022/05/27 11:55:16;;;;;;;9.87;2.20;;;15.00;99.90;;;;;;4973666;28;20435;-55
2022/05/27 11:57:58;;;;;;;16.37;2.90;;;15.40;99.90;;;;;;4972639;28;20978;-54
2022/05/27 12:00:26;;;;;;;10.83;2.40;;;15.80;99.90;;;;;;4973879;28;20428;-56
2022/05/27 12:03:06;;;;;;;13.93;3.07;;;16.20;99.90;;;;;;4974949;28;20519;-55
2022/05/27 12:05:43;;;;;;;13.37;2.90;;;16.60;99.90;;;;;;4977817;28;20407;-55
2022/05/27 12:08:21;;;;;;;11.07;2.90;;;17.30;99.90;;;;;;4977676;28;20776;-55
2022/05/27 12:10:54;;;;;;;13.33;2.97;;;17.30;99.90;;;;;;4977782;28;20431;-55
2022/05/27 12:13:34;;;;;;;13.20;2.70;;;16.90;99.90;;;;;;4977049;28;20420;-55
2022/05/27 12:16:08;;;;;;;11.70;3.00;;;16.30;99.90;;;;;;4976285;28;21269;-55
2022/05/27 12:18:45;;;;;;;12.50;2.80;;;16.20;99.90;;;;;;4975942;28;20528;-54
2022/05/27 12:21:15;;;;;;;13.70;2.17;;;16.70;99.90;;;;;;4975673;28;20518;-55
2022/05/27 12:23:47;;;;;;;11.90;2.70;;;16.90;99.90;;;;;;4975972;28;20417;-52
2022/05/27 12:26:14;;;;;;;11.03;2.50;;;16.90;99.90;;;;;;4975790;28;20423;-53
2022/05/27 12:28:43;;;;;;;14.80;2.40;;;16.20;99.90;;;;;;4975870;28;20563;-61
2022/05/27 12:31:10;;;;;;;13.60;3.00;;;16.80;99.90;;;;;;4975783;28;20467;-54
2022/05/27 12:33:38;;;;;;;10.03;2.50;;;16.90;99.90;;;;;;4975733;28;20792;-54
2022/05/27 12:36:18;;;;;;;13.33;2.80;;;17.10;99.90;;;;;;4975815;28;20443;-54
2022/05/27 12:38:47;;;;;;;11.40;2.83;;;17.30;99.90;;;;;;4975869;28;21291;-53
2022/05/27 12:41:18;;;;;;;10.07;2.03;;;17.10;99.90;;;;;;4975690;28;20456;-52
2022/05/27 12:44:00;;;;;;;9.37;2.17;;;16.90;99.90;;;;;;4975778;28;20447;-53
2022/05/27 12:46:32;;;;;;;8.93;2.03;;;16.20;99.90;;;;;;4975622;28;20401;-53
2022/05/27 12:49:19;;;;;;;10.70;2.60;;;16.40;99.90;;;;;;4975335;28;20783;-53
2022/05/27 12:51:46;;;;;;;11.00;2.20;;;17.20;99.90;;;;;;4975316;28;20906;-53
2022/05/27 12:54:43;;;;;;;7.73;2.03;;;18.30;99.90;;;;;;4975489;28;20451;-52
2022/05/27 13:03:35;;;;;;;11.70;2.33;;;17.20;99.90;;;;;;4975320;28;20479;-55
2022/05/27 13:06:11;;;;;;;14.13;2.70;;;16.50;99.90;;;;;;4975106;28;20410;-53
2022/05/27 13:09:00;;;;;;;14.30;2.80;;;17.00;99.90;;;;;;4974987;28;20468;-54
2022/05/27 13:11:35;;;;;;;10.73;2.40;;;17.10;99.90;;;;;;4975254;28;20419;-53
2022/05/27 13:14:03;;;;;;;11.27;2.57;;;16.70;99.90;;;;;;4974771;28;20503;-54
2022/05/27 13:16:32;;;;;;;12.63;2.37;;;16.50;99.90;;;;;;4975144;28;21046;-54
2022/05/27 13:19:08;;;;;;;6.93;2.27;;;16.40;99.90;;;;;;4974851;28;20427;-52
2022/05/27 13:21:53;;;;;;;17.43;3.03;;;16.00;99.90;;;;;;4974777;28;20517;-55
2022/05/27 13:24:19;;;;;;;12.97;2.80;;;15.50;99.90;;;;;;4974969;28;20416;-54
2022/05/27 13:26:59;;;;;;;17.30;2.60;;;16.00;99.90;;;;;;4974804;28;20416;-53
2022/05/27 13:29:36;;;;;;;10.33;2.10;;;17.10;99.90;;;;;;4974954;28;20655;-53
2022/05/27 13:32:06;;;;;;;10.97;2.10;;;17.70;99.90;;;;;;4975036;28;20913;-53
2022/05/27 13:34:35;;;;;;;16.23;2.00;;;17.70;99.90;;;;;;4974776;28;20451;-53
2022/05/27 13:37:05;;;;;;;8.10;2.13;;;17.80;99.90;;;;;;4974846;28;20417;-54